createdAt,value
2018-12-12T00:01:24.623Z,64.24
2018-12-12T00:03:53.242Z,64.64
2018-12-12T00:06:21.823Z,64.21
2018-12-12T00:08:50.488Z,63.48
2018-12-12T00:11:19.210Z,64.06
2018-12-12T00:13:47.837Z,64.71
2018-12-12T00:16:17.611Z,63.82
2018-12-12T00:18:46.174Z,64.42
2018-12-12T00:21:14.977Z,63.59
2018-12-12T00:23:43.599Z,63.69
2018-12-12T00:26:12.165Z,63.49
2018-12-12T00:28:40.755Z,63.39
2018-12-12T00:31:09.394Z,62.54
2018-12-12T00:33:37.932Z,62.73
2018-12-12T00:36:06.467Z,62.65
2018-12-12T00:38:35.203Z,62.15
2018-12-12T00:41:03.883Z,61.84
2018-12-12T00:43:32.456Z,62.48
2018-12-12T00:46:00.968Z,62.77
2018-12-12T00:48:29.535Z,61.63
2018-12-12T00:50:58.101Z,61.63
2018-12-12T00:53:26.742Z,61.53
2018-12-12T00:55:55.390Z,62.10
2018-12-12T00:58:24.402Z,61.43
2018-12-12T01:00:52.973Z,61.99
2018-12-12T01:03:21.552Z,61.29
2018-12-12T01:05:50.155Z,61.93
2018-12-12T01:08:18.823Z,61.34
2018-12-12T01:10:50.245Z,61.63
2018-12-12T01:13:18.836Z,61.61
2018-12-12T01:15:47.445Z,61.53
2018-12-12T01:18:16.158Z,62.10
2018-12-12T01:20:44.670Z,61.84
2018-12-12T01:23:13.253Z,62.40
2018-12-12T01:25:41.889Z,61.50
2018-12-12T01:28:10.447Z,62.10
2018-12-12T01:30:39.166Z,62.14
2018-12-12T01:33:07.873Z,62.59
2018-12-12T01:35:36.465Z,63.25
2018-12-12T01:38:05.250Z,63.26
2018-12-12T01:40:33.882Z,62.80
2018-12-12T01:43:02.488Z,63.50
2018-12-12T01:45:31.095Z,63.45
2018-12-12T01:47:59.680Z,63.63
2018-12-12T01:50:28.286Z,63.61
2018-12-12T01:52:56.821Z,63.20
2018-12-12T01:55:25.374Z,64.07
2018-12-12T01:57:53.979Z,63.72
2018-12-12T02:00:23.138Z,63.70
2018-12-12T02:02:51.713Z,63.97
2018-12-12T02:05:20.302Z,63.93
2018-12-12T02:07:48.991Z,64.28
2018-12-12T02:10:17.861Z,64.25
2018-12-12T02:12:56.344Z,64.75
2018-12-12T02:15:24.947Z,65.82
2018-12-12T02:17:53.876Z,66.05
2018-12-12T02:20:22.441Z,71.95
2018-12-12T02:22:51.036Z,77.73
2018-12-12T02:25:19.633Z,77.48
2018-12-12T02:27:48.218Z,78.01
2018-12-12T02:30:16.833Z,77.35
2018-12-12T02:32:45.476Z,76.85
2018-12-12T02:35:14.063Z,76.80
2018-12-12T02:37:42.762Z,76.19
2018-12-12T02:40:11.426Z,75.62
2018-12-12T02:42:40.039Z,74.58
2018-12-12T02:45:08.849Z,74.84
2018-12-12T02:47:37.409Z,73.68
2018-12-12T02:50:06.095Z,72.58
2018-12-12T02:52:34.748Z,72.83
2018-12-12T02:55:03.436Z,71.71
2018-12-12T02:57:32.038Z,71.20
2018-12-12T03:00:00.592Z,71.00
2018-12-12T03:02:29.523Z,70.92
2018-12-12T03:04:58.178Z,70.50
2018-12-12T03:08:29.824Z,70.85
2018-12-12T03:10:58.374Z,70.68
2018-12-12T03:13:26.953Z,70.62
2018-12-12T03:15:55.544Z,70.00
2018-12-12T03:18:24.145Z,69.78
2018-12-12T03:20:52.733Z,69.99
2018-12-12T03:23:21.352Z,68.87
2018-12-12T03:25:49.925Z,69.25
2018-12-12T03:28:18.508Z,69.34
2018-12-12T03:30:47.104Z,68.81
2018-12-12T03:33:15.657Z,69.19
2018-12-12T03:35:44.329Z,69.22
2018-12-12T03:38:12.930Z,68.82
2018-12-12T03:40:41.866Z,67.64
2018-12-12T03:43:10.596Z,68.40
2018-12-12T03:45:39.248Z,68.44
2018-12-12T03:48:07.873Z,67.75
2018-12-12T03:50:36.445Z,68.30
2018-12-12T03:53:05.074Z,68.18
2018-12-12T03:55:33.680Z,67.87
2018-12-12T03:58:02.328Z,68.25
2018-12-12T04:00:30.964Z,67.73
2018-12-12T04:03:00.358Z,68.24
2018-12-12T04:05:28.978Z,67.98
2018-12-12T04:07:57.595Z,68.40
2018-12-12T04:10:26.198Z,68.11
2018-12-12T04:12:54.837Z,67.07
2018-12-12T04:15:23.425Z,67.87
2018-12-12T04:17:52.029Z,67.70
2018-12-12T04:23:04.849Z,67.50
2018-12-12T04:25:33.820Z,66.65
2018-12-12T04:28:02.465Z,66.87
2018-12-12T04:30:31.157Z,66.49
2018-12-12T04:32:59.786Z,66.71
2018-12-12T04:35:28.438Z,66.65
2018-12-12T04:37:57.744Z,66.43
2018-12-12T04:40:26.354Z,65.29
2018-12-12T04:42:54.981Z,65.76
2018-12-12T04:45:23.627Z,64.83
2018-12-12T04:47:52.257Z,66.12
2018-12-12T04:50:21.109Z,65.70
2018-12-12T04:52:50.881Z,66.46
2018-12-12T04:55:19.541Z,66.30
2018-12-12T04:57:48.149Z,65.64
2018-12-12T05:00:17.098Z,65.67
2018-12-12T05:02:46.220Z,65.48
2018-12-12T05:05:14.862Z,65.16
2018-12-12T05:07:44.206Z,66.27
2018-12-12T05:10:12.892Z,65.67
2018-12-12T05:12:41.483Z,66.60
2018-12-12T05:15:10.130Z,65.75
2018-12-12T05:17:38.810Z,66.15
2018-12-12T05:20:07.673Z,66.59
2018-12-12T05:22:36.234Z,66.46
2018-12-12T05:25:04.983Z,65.85
2018-12-12T05:27:33.736Z,66.21
2018-12-12T05:30:02.324Z,66.08
2018-12-12T05:32:30.923Z,66.13
2018-12-12T05:34:59.479Z,66.23
2018-12-12T05:37:28.019Z,66.20
2018-12-12T05:39:56.651Z,65.71
2018-12-12T05:42:25.514Z,65.56
2018-12-12T05:44:54.329Z,65.53
2018-12-12T05:47:23.127Z,65.80
2018-12-12T05:49:51.694Z,66.06
2018-12-12T05:52:20.439Z,66.50
2018-12-12T05:54:49.121Z,65.86
2018-12-12T05:57:17.756Z,66.31
2018-12-12T05:59:46.457Z,65.98
2018-12-12T06:02:15.036Z,66.44
2018-12-12T06:04:43.626Z,65.97
2018-12-12T06:07:12.236Z,65.19
2018-12-12T06:09:40.808Z,65.57
2018-12-12T06:12:09.526Z,64.81
2018-12-12T06:14:38.163Z,65.46
2018-12-12T06:17:06.829Z,65.14
2018-12-12T06:19:35.403Z,64.97
2018-12-12T06:22:04.050Z,64.02
2018-12-12T06:24:32.709Z,63.99
2018-12-12T06:27:01.288Z,64.34
2018-12-12T06:29:29.921Z,63.90
2018-12-12T06:31:58.542Z,64.32
2018-12-12T06:34:27.129Z,64.72
2018-12-12T06:36:55.715Z,64.74
2018-12-12T06:39:24.285Z,64.05
2018-12-12T06:41:52.904Z,64.57
2018-12-12T06:44:21.481Z,64.50
2018-12-12T06:46:50.127Z,64.42
2018-12-12T06:49:18.742Z,64.54
2018-12-12T06:51:47.329Z,64.41
2018-12-12T06:54:15.889Z,64.92
2018-12-12T06:56:44.529Z,65.34
2018-12-12T06:59:13.226Z,65.26
2018-12-12T07:01:42.338Z,64.54
2018-12-12T07:04:11.034Z,64.75
2018-12-12T07:06:39.646Z,65.48
2018-12-12T07:09:09.769Z,65.45
2018-12-12T07:11:38.402Z,64.93
2018-12-12T07:14:07.010Z,65.54
2018-12-12T07:16:35.713Z,64.96
2018-12-12T07:19:04.438Z,63.53
2018-12-12T07:21:33.109Z,64.23
2018-12-12T07:24:01.875Z,64.59
2018-12-12T07:26:30.521Z,63.82
2018-12-12T07:28:59.699Z,63.65
2018-12-12T07:31:28.383Z,63.73
2018-12-12T07:34:00.869Z,63.90
2018-12-12T07:36:28.859Z,63.55
2018-12-12T07:38:57.854Z,63.39
2018-12-12T07:41:26.846Z,63.91
2018-12-12T07:43:55.505Z,64.22
2018-12-12T07:46:24.592Z,63.81
2018-12-12T07:48:53.142Z,63.98
2018-12-12T07:51:21.778Z,64.46
2018-12-12T07:53:50.408Z,63.67
2018-12-12T07:56:19.168Z,63.13
2018-12-12T07:58:47.949Z,63.53
2018-12-12T08:01:16.562Z,63.67
2018-12-12T08:03:45.190Z,63.51
2018-12-12T08:06:13.766Z,63.71
2018-12-12T08:08:42.382Z,63.68
2018-12-12T08:11:11.797Z,63.23
2018-12-12T08:13:40.490Z,64.20
2018-12-12T08:16:09.354Z,64.26
2018-12-12T08:18:38.121Z,64.14
2018-12-12T08:21:06.753Z,63.62
2018-12-12T08:23:35.684Z,64.48
2018-12-12T08:26:04.242Z,63.62
2018-12-12T08:28:32.915Z,63.62
2018-12-12T08:31:01.584Z,63.24
2018-12-12T08:33:30.302Z,63.40
2018-12-12T08:35:58.835Z,64.15
2018-12-12T08:38:27.803Z,64.10
2018-12-12T08:40:56.391Z,64.36
2018-12-12T08:43:24.966Z,64.46
2018-12-12T08:45:53.614Z,64.45
2018-12-12T08:48:22.221Z,65.34
2018-12-12T08:50:50.774Z,65.23
2018-12-12T08:53:19.473Z,64.03
2018-12-12T08:55:48.039Z,64.26
2018-12-12T08:58:16.666Z,65.06
2018-12-12T09:00:45.343Z,64.04
2018-12-12T09:03:17.595Z,63.04
2018-12-12T09:05:44.809Z,62.77
2018-12-12T09:08:13.437Z,62.90
2018-12-12T09:10:42.008Z,61.96
2018-12-12T09:13:10.642Z,62.21
2018-12-12T09:15:39.530Z,62.83
2018-12-12T09:18:08.099Z,61.54
2018-12-12T09:20:36.735Z,60.51
2018-12-12T09:23:05.332Z,59.95
2018-12-12T09:25:33.909Z,59.92
2018-12-12T09:28:02.597Z,59.90
2018-12-12T09:30:31.246Z,59.36
2018-12-12T09:32:59.858Z,60.90
2018-12-12T09:35:28.471Z,59.19
2018-12-12T09:37:57.120Z,58.14
2018-12-12T09:40:25.778Z,58.64
2018-12-12T09:42:54.384Z,56.87
2018-12-12T09:45:22.971Z,55.21
2018-12-12T09:47:51.638Z,56.18
2018-12-12T09:50:20.507Z,55.43
2018-12-12T09:52:49.215Z,55.27
2018-12-12T09:55:17.894Z,54.99
2018-12-12T09:57:47.661Z,55.34
2018-12-12T10:00:16.296Z,56.94
2018-12-12T10:02:44.862Z,56.62
2018-12-12T10:05:13.523Z,55.71
2018-12-12T10:07:42.128Z,56.72
2018-12-12T10:10:10.739Z,57.34
2018-12-12T10:12:39.633Z,55.92
2018-12-12T10:15:08.708Z,56.23
2018-12-12T10:17:37.334Z,56.04
2018-12-12T10:20:06.381Z,56.28
2018-12-12T10:22:35.010Z,56.14
2018-12-12T10:25:03.681Z,56.86
2018-12-12T10:27:32.211Z,56.85
2018-12-12T10:30:00.727Z,56.54
2018-12-12T10:32:30.105Z,55.44
2018-12-12T10:34:58.751Z,55.73
2018-12-12T10:37:27.362Z,56.25
2018-12-12T10:39:55.994Z,55.59
2018-12-12T10:42:24.612Z,54.86
2018-12-12T10:44:53.667Z,53.80
2018-12-12T10:47:22.236Z,53.81
2018-12-12T10:49:51.118Z,54.54
2018-12-12T10:52:20.170Z,55.01
2018-12-12T10:54:48.734Z,54.73
2018-12-12T10:57:17.418Z,55.75
2018-12-12T10:59:46.072Z,55.19
2018-12-12T11:02:20.244Z,56.31
2018-12-12T11:04:48.920Z,56.48
2018-12-12T11:07:17.614Z,56.72
2018-12-12T11:09:46.750Z,57.73
2018-12-12T11:12:15.415Z,57.48
2018-12-12T11:14:45.054Z,56.67
2018-12-12T11:17:13.688Z,56.83
2018-12-12T11:19:42.301Z,57.67
2018-12-12T11:22:10.990Z,54.91
2018-12-12T11:24:39.990Z,52.42
2018-12-12T11:27:08.675Z,51.94
2018-12-12T11:29:37.995Z,50.62
2018-12-12T11:32:07.291Z,49.17
2018-12-12T11:34:35.977Z,48.57
2018-12-12T11:37:04.640Z,48.65
2018-12-12T11:39:33.223Z,48.55
2018-12-12T11:42:02.002Z,46.97
2018-12-12T11:44:30.545Z,46.99
2018-12-12T11:46:59.237Z,47.35
2018-12-12T11:49:28.801Z,46.89
2018-12-12T11:51:57.624Z,47.04
2018-12-12T11:54:26.617Z,47.33
2018-12-12T11:56:55.285Z,46.92
2018-12-12T11:59:24.461Z,47.98
2018-12-12T12:01:53.057Z,48.42
2018-12-12T12:04:21.829Z,49.93
2018-12-12T12:06:50.655Z,49.33
2018-12-12T12:09:19.636Z,49.85
2018-12-12T12:11:48.539Z,50.40
2018-12-12T12:14:17.485Z,51.21
2018-12-12T12:16:46.159Z,52.00
2018-12-12T12:19:14.947Z,52.55
2018-12-12T12:21:43.459Z,53.65
2018-12-12T12:24:12.046Z,52.99
2018-12-12T12:26:40.720Z,52.57
2018-12-12T12:29:09.367Z,53.48
2018-12-12T12:31:38.346Z,53.66
2018-12-12T12:34:06.960Z,53.42
2018-12-12T12:36:35.772Z,52.21
2018-12-12T12:39:07.437Z,53.54
2018-12-12T12:41:36.348Z,52.56
2018-12-12T12:44:04.988Z,52.95
2018-12-12T12:46:33.573Z,51.89
2018-12-12T12:49:02.111Z,52.42
2018-12-12T12:51:30.873Z,52.91
2018-12-12T12:53:59.497Z,52.87
2018-12-12T12:56:28.100Z,52.63
2018-12-12T12:58:56.779Z,52.23
2018-12-12T13:01:25.338Z,52.67
2018-12-12T13:03:54.037Z,52.11
2018-12-12T13:06:22.709Z,52.62
2018-12-12T13:08:51.277Z,52.09
2018-12-12T13:11:20.356Z,52.79
2018-12-12T13:13:48.924Z,53.18
2018-12-12T13:16:17.637Z,53.66
2018-12-12T13:18:46.566Z,54.61
2018-12-12T13:21:15.323Z,55.32
2018-12-12T13:23:44.320Z,55.43
2018-12-12T13:26:13.101Z,55.13
2018-12-12T13:28:42.177Z,56.12
2018-12-12T13:31:11.748Z,57.14
2018-12-12T13:33:40.643Z,56.96
2018-12-12T13:36:09.326Z,57.73
2018-12-12T13:38:38.003Z,57.32
2018-12-12T13:41:06.741Z,56.94
2018-12-12T13:43:35.333Z,56.95
2018-12-12T13:46:04.017Z,57.98
2018-12-12T13:48:32.561Z,58.25
2018-12-12T13:51:01.214Z,57.91
2018-12-12T13:53:29.761Z,58.64
2018-12-12T13:55:58.381Z,59.03
2018-12-12T13:58:26.971Z,58.97
2018-12-12T14:00:55.580Z,58.44
2018-12-12T14:03:24.221Z,58.84
2018-12-12T14:05:52.885Z,58.17
2018-12-12T14:08:21.517Z,58.58
2018-12-12T14:10:50.208Z,59.60
2018-12-12T14:13:19.187Z,59.66
2018-12-12T14:15:47.756Z,58.06
2018-12-12T14:18:16.405Z,59.15
2018-12-12T14:20:45.093Z,59.13
2018-12-12T14:23:13.773Z,60.01
2018-12-12T14:25:42.404Z,59.39
2018-12-12T14:28:11.067Z,59.82
2018-12-12T14:30:39.760Z,59.75
2018-12-12T14:33:08.319Z,60.25
2018-12-12T14:35:36.889Z,60.96
2018-12-12T14:38:05.507Z,61.19
2018-12-12T14:40:34.408Z,60.91
2018-12-12T14:43:02.961Z,61.38
2018-12-12T14:45:31.631Z,61.58
2018-12-12T14:48:00.259Z,62.39
2018-12-12T14:50:28.892Z,61.81
2018-12-12T14:52:57.574Z,62.57
2018-12-12T14:55:26.659Z,62.37
2018-12-12T14:57:55.236Z,62.55
2018-12-12T15:00:23.908Z,61.54
2018-12-12T15:02:52.575Z,61.93
2018-12-12T15:05:21.237Z,60.78
2018-12-12T15:07:50.287Z,60.62
2018-12-12T15:10:18.880Z,59.86
2018-12-12T15:12:47.623Z,59.61
2018-12-12T15:15:16.245Z,59.81
2018-12-12T15:17:44.875Z,58.87
2018-12-12T15:20:13.677Z,58.74
2018-12-12T15:22:42.306Z,59.27
2018-12-12T15:25:11.179Z,59.11
2018-12-12T15:27:39.778Z,57.57
2018-12-12T15:30:10.694Z,57.70
2018-12-12T15:32:39.307Z,56.70
2018-12-12T15:35:07.970Z,56.28
2018-12-12T15:37:36.691Z,56.83
2018-12-12T15:40:05.855Z,55.67
2018-12-12T15:42:34.588Z,55.55
2018-12-12T15:45:03.334Z,56.23
2018-12-12T15:47:32.075Z,56.21
2018-12-12T15:50:00.755Z,55.40
2018-12-12T15:52:29.424Z,55.41
2018-12-12T15:54:58.190Z,55.24
2018-12-12T15:57:26.802Z,54.33
2018-12-12T15:59:55.312Z,55.21
2018-12-12T16:02:23.998Z,54.58
2018-12-12T16:04:52.613Z,55.00
2018-12-12T16:07:21.336Z,55.69
2018-12-12T16:09:50.012Z,56.64
2018-12-12T16:12:18.615Z,56.49
2018-12-12T16:14:47.422Z,57.24
2018-12-12T16:17:16.183Z,57.08
2018-12-12T16:19:44.765Z,56.67
2018-12-12T16:22:13.434Z,57.66
2018-12-12T16:24:41.940Z,57.59
2018-12-12T16:27:10.537Z,57.82
2018-12-12T16:29:39.598Z,59.54
2018-12-12T16:32:08.296Z,60.03
2018-12-12T16:34:36.963Z,60.92
2018-12-12T16:37:05.866Z,61.24
2018-12-12T16:39:34.515Z,61.22
2018-12-12T16:42:03.290Z,62.52
2018-12-12T16:44:32.165Z,62.17
2018-12-12T16:47:01.217Z,61.86
2018-12-12T16:49:29.872Z,63.22
2018-12-12T16:51:58.490Z,63.15
2018-12-12T16:54:27.114Z,62.45
2018-12-12T16:56:55.754Z,63.61
2018-12-12T16:59:24.504Z,62.96
2018-12-12T17:01:53.172Z,63.17
2018-12-12T17:04:21.937Z,63.83
2018-12-12T17:06:51.378Z,63.78
2018-12-12T17:09:19.999Z,63.50
2018-12-12T17:11:48.630Z,63.39
2018-12-12T17:14:17.379Z,62.52
2018-12-12T17:16:47.416Z,62.65
2018-12-12T17:19:16.068Z,63.17
2018-12-12T17:21:45.229Z,63.20
2018-12-12T17:24:13.992Z,62.79
2018-12-12T17:26:42.787Z,62.26
2018-12-12T17:29:11.466Z,61.17
2018-12-12T17:31:40.092Z,61.74
2018-12-12T17:34:08.729Z,61.32
2018-12-12T17:36:37.255Z,61.44
2018-12-12T17:39:07.489Z,60.95
2018-12-12T17:41:36.122Z,60.34
2018-12-12T17:44:04.851Z,60.24
2018-12-12T17:46:33.445Z,60.43
2018-12-12T17:49:02.343Z,60.57
2018-12-12T17:51:30.901Z,60.30
2018-12-12T17:53:59.573Z,58.83
2018-12-12T17:56:28.160Z,59.45
2018-12-12T17:58:56.786Z,59.41
2018-12-12T18:08:11.188Z,59.87
2018-12-12T18:10:39.865Z,59.36
2018-12-12T18:13:08.551Z,59.67
2018-12-12T18:15:37.430Z,60.42
2018-12-12T18:18:06.053Z,59.79
2018-12-12T18:20:34.701Z,59.86
2018-12-12T18:23:03.276Z,58.91
2018-12-12T18:25:32.023Z,60.03
2018-12-12T18:28:00.656Z,60.69
2018-12-12T18:30:29.263Z,60.31
2018-12-12T18:32:57.977Z,60.57
2018-12-12T18:35:27.583Z,59.82
2018-12-12T18:37:56.377Z,58.61
2018-12-12T18:40:25.039Z,58.42
2018-12-12T18:42:53.697Z,58.27
2018-12-12T18:45:22.419Z,59.32
2018-12-12T18:47:51.068Z,60.05
2018-12-12T18:50:19.771Z,59.99
2018-12-12T18:52:48.379Z,60.83
2018-12-12T18:55:17.014Z,60.70
2018-12-12T18:57:45.717Z,60.85
2018-12-12T19:00:14.670Z,61.03
2018-12-12T19:02:43.246Z,61.24
2018-12-12T19:05:11.964Z,60.70
2018-12-12T19:07:40.619Z,61.71
2018-12-12T19:10:09.501Z,60.40
2018-12-12T19:12:38.203Z,60.95
2018-12-12T19:15:08.313Z,60.38
2018-12-12T19:17:37.138Z,61.14
2018-12-12T19:20:07.003Z,60.57
2018-12-12T19:22:35.704Z,61.18
2018-12-12T19:25:04.997Z,60.46
2018-12-12T19:27:34.892Z,60.63
2018-12-12T19:32:39.178Z,60.09
2018-12-12T19:35:09.255Z,60.28
2018-12-12T19:37:37.919Z,60.52
2018-12-12T19:40:08.010Z,60.71
2018-12-12T19:45:15.987Z,61.83
2018-12-12T19:47:44.604Z,62.19
2018-12-12T19:50:13.245Z,61.49
2018-12-12T19:52:41.978Z,61.18
2018-12-12T19:55:10.847Z,62.34
2018-12-12T19:57:39.549Z,62.01
2018-12-12T20:00:14.587Z,61.71
2018-12-12T20:02:43.272Z,61.48
2018-12-12T20:05:12.102Z,62.17
2018-12-12T20:07:40.976Z,62.98
2018-12-12T20:10:09.643Z,62.32
2018-12-12T20:12:38.605Z,63.02
2018-12-12T20:15:10.137Z,62.96
2018-12-12T20:17:38.840Z,63.44
2018-12-12T20:20:11.062Z,63.75
2018-12-12T20:22:39.756Z,64.12
2018-12-12T20:25:08.456Z,63.23
2018-12-12T20:27:37.218Z,65.26
2018-12-12T20:30:13.030Z,64.63
2018-12-12T20:32:41.719Z,63.75
2018-12-12T20:35:10.341Z,64.32
2018-12-12T20:37:38.969Z,63.78
2018-12-12T20:40:07.849Z,64.35
2018-12-12T20:42:36.754Z,64.37
2018-12-12T20:45:05.995Z,64.63
2018-12-12T20:47:34.697Z,64.45
2018-12-12T20:50:03.481Z,64.69
2018-12-12T20:52:32.854Z,64.36
2018-12-12T20:55:01.569Z,64.08
2018-12-12T20:57:30.296Z,65.39
2018-12-12T20:59:58.938Z,64.78
2018-12-12T21:02:28.655Z,65.30
2018-12-12T21:04:57.279Z,65.39
2018-12-12T21:07:25.977Z,65.11
2018-12-12T21:09:54.678Z,65.80
2018-12-12T21:12:24.635Z,65.67
2018-12-12T21:14:53.279Z,64.92
2018-12-12T21:17:22.564Z,65.25
2018-12-12T21:19:51.250Z,64.96
2018-12-12T21:22:20.968Z,65.33
2018-12-12T21:24:50.244Z,65.54
2018-12-12T21:27:18.859Z,65.58
2018-12-12T21:29:47.499Z,65.90
2018-12-12T21:32:16.099Z,66.73
2018-12-12T21:34:44.690Z,66.72
2018-12-12T21:37:13.347Z,66.30
2018-12-12T21:39:41.982Z,66.94
2018-12-12T21:42:11.583Z,66.66
2018-12-12T21:44:40.172Z,66.99
2018-12-12T21:47:08.865Z,67.62
2018-12-12T21:49:38.235Z,67.16
2018-12-12T21:52:06.838Z,68.13
2018-12-12T21:54:35.705Z,67.85
2018-12-12T21:57:04.275Z,68.16
2018-12-12T21:59:32.852Z,67.27
2018-12-12T22:02:01.503Z,67.86
2018-12-12T22:04:30.073Z,66.98
2018-12-12T22:06:58.722Z,67.12
2018-12-12T22:09:27.313Z,68.23
2018-12-12T22:11:56.246Z,68.52
2018-12-12T22:14:24.805Z,68.18
2018-12-12T22:16:53.455Z,68.63
2018-12-12T22:19:22.154Z,67.99
2018-12-12T22:21:50.684Z,67.43
2018-12-12T22:24:19.659Z,67.84
2018-12-12T22:26:48.315Z,67.96
2018-12-12T22:29:16.889Z,67.65
2018-12-12T22:31:45.670Z,68.33
2018-12-12T22:34:14.411Z,68.44
2018-12-12T22:36:43.155Z,68.51
2018-12-12T22:39:11.785Z,68.62
2018-12-12T22:41:40.403Z,68.83
2018-12-12T22:44:09.107Z,68.42
2018-12-12T22:46:37.958Z,69.62
2018-12-12T22:49:06.610Z,69.76
2018-12-12T22:51:35.257Z,68.61
2018-12-12T22:54:04.595Z,69.04
2018-12-12T22:56:33.167Z,69.24
2018-12-12T22:59:01.798Z,68.44
2018-12-12T23:01:30.423Z,69.15
2018-12-12T23:03:59.061Z,68.39
2018-12-12T23:06:27.648Z,69.12
2018-12-12T23:08:56.306Z,68.64
2018-12-12T23:11:25.474Z,68.77
2018-12-12T23:13:54.140Z,68.82
2018-12-12T23:16:23.092Z,68.85
2018-12-12T23:18:51.690Z,67.62
2018-12-12T23:21:20.257Z,68.07
2018-12-12T23:23:48.778Z,69.02
2018-12-12T23:26:17.419Z,69.30
2018-12-12T23:28:45.995Z,68.39
2018-12-12T23:31:14.665Z,68.52
2018-12-12T23:33:45.234Z,68.55
2018-12-12T23:36:13.848Z,68.67
2018-12-12T23:38:42.476Z,68.97
2018-12-12T23:41:11.132Z,68.66
2018-12-12T23:43:39.711Z,68.37
2018-12-12T23:46:08.435Z,68.67
2018-12-12T23:48:37.044Z,68.75
2018-12-12T23:51:05.640Z,68.98
2018-12-12T23:53:34.165Z,69.71
2018-12-12T23:56:02.793Z,69.28
2018-12-12T23:58:31.423Z,69.12
